createdAt,value
2022-10-25T00:01:28.419Z,14.50
2022-10-25T00:03:56.149Z,14.40
2022-10-25T00:06:23.787Z,14.40
2022-10-25T00:08:50.806Z,14.30
2022-10-25T00:11:32.215Z,14.30
2022-10-25T00:14:03.312Z,14.30
2022-10-25T00:16:35.538Z,14.30
2022-10-25T00:19:02.710Z,14.30
2022-10-25T00:21:29.570Z,14.30
2022-10-25T00:23:56.496Z,14.40
2022-10-25T00:26:26.345Z,14.40
2022-10-25T00:28:55.633Z,14.40
2022-10-25T00:31:24.099Z,14.40
2022-10-25T00:33:51.400Z,14.40
2022-10-25T00:36:24.943Z,14.40
2022-10-25T00:38:52.732Z,14.40
2022-10-25T00:41:24.089Z,14.40
2022-10-25T00:44:32.744Z,14.40
2022-10-25T00:47:24.680Z,14.40
2022-10-25T00:50:46.099Z,14.40
2022-10-25T00:53:20.022Z,14.40
2022-10-25T00:55:59.549Z,14.40
2022-10-25T00:58:28.770Z,14.40
2022-10-25T01:00:58.216Z,14.40
2022-10-25T01:03:33.910Z,14.40
2022-10-25T01:06:05.522Z,14.30
2022-10-25T01:08:34.589Z,14.20
2022-10-25T01:11:04.272Z,14.30
2022-10-25T01:13:31.294Z,14.30
2022-10-25T01:16:23.118Z,14.20
2022-10-25T01:18:58.557Z,14.20
2022-10-25T01:21:46.743Z,14.20
2022-10-25T01:24:28.485Z,14.20
2022-10-25T01:27:19.549Z,14.10
2022-10-25T01:30:04.911Z,14.10
2022-10-25T01:33:23.075Z,14.10
2022-10-25T01:36:16.695Z,14.10
2022-10-25T01:38:55.974Z,14.20
2022-10-25T01:41:25.572Z,14.20
2022-10-25T01:44:09.235Z,14.20
2022-10-25T01:46:50.449Z,14.20
2022-10-25T01:49:45.594Z,14.20
2022-10-25T01:52:18.510Z,14.10
2022-10-25T01:54:45.294Z,14.20
2022-10-25T01:57:39.618Z,14.10
2022-10-25T02:00:18.928Z,14.20
2022-10-25T02:03:04.436Z,14.10
2022-10-25T02:06:09.569Z,14.20
2022-10-25T02:08:36.440Z,14.10
2022-10-25T02:11:24.342Z,14.10
2022-10-25T02:14:09.835Z,14.10
2022-10-25T02:16:47.986Z,14.10
2022-10-25T02:19:19.853Z,14.10
2022-10-25T02:21:51.568Z,14.10
2022-10-25T02:24:23.398Z,14.10
2022-10-25T02:26:51.929Z,14.10
2022-10-25T02:29:23.993Z,14.10
2022-10-25T02:31:51.023Z,14.10
2022-10-25T02:34:21.434Z,14.10
2022-10-25T02:36:50.408Z,14.10
2022-10-25T02:39:19.782Z,14.10
2022-10-25T02:41:46.660Z,14.10
2022-10-25T02:45:34.788Z,14.10
2022-10-25T02:48:04.265Z,14.10
2022-10-25T02:50:31.094Z,14.10
2022-10-25T02:53:00.946Z,14.10
2022-10-25T02:55:27.786Z,14.10
2022-10-25T02:57:54.592Z,14.10
2022-10-25T03:00:27.153Z,14.10
2022-10-25T03:02:53.992Z,14.00
2022-10-25T03:05:23.155Z,14.00
2022-10-25T03:07:49.997Z,14.00
2022-10-25T03:10:19.505Z,14.00
2022-10-25T03:12:46.524Z,14.00
2022-10-25T03:15:15.795Z,14.00
2022-10-25T03:17:42.585Z,14.10
2022-10-25T03:20:12.154Z,14.10
2022-10-25T03:22:38.979Z,14.10
2022-10-25T03:27:45.623Z,14.10
2022-10-25T03:30:19.199Z,14.10
2022-10-25T03:32:48.314Z,14.10
2022-10-25T03:35:17.762Z,14.10
2022-10-25T03:37:44.897Z,14.10
2022-10-25T03:40:12.282Z,14.10
2022-10-25T03:42:44.161Z,14.20
2022-10-25T03:45:12.347Z,14.20
2022-10-25T03:47:40.379Z,14.20
2022-10-25T03:50:10.039Z,14.20
2022-10-25T03:52:37.104Z,14.20
2022-10-25T03:55:07.716Z,14.20
2022-10-25T03:57:34.763Z,14.20
2022-10-25T04:00:01.639Z,14.30
2022-10-25T04:02:28.931Z,14.30
2022-10-25T04:04:58.294Z,14.30
2022-10-25T04:07:28.131Z,14.20
2022-10-25T04:10:01.180Z,14.20
2022-10-25T04:12:30.599Z,14.20
2022-10-25T04:14:57.445Z,14.20
2022-10-25T04:17:24.385Z,14.20
2022-10-25T04:19:51.186Z,14.20
2022-10-25T04:22:21.011Z,14.20
2022-10-25T04:24:50.156Z,14.20
2022-10-25T04:27:18.065Z,14.20
2022-10-25T04:29:45.381Z,14.20
2022-10-25T04:32:17.235Z,14.20
2022-10-25T04:34:46.626Z,14.10
2022-10-25T04:37:13.521Z,14.20
2022-10-25T04:39:40.368Z,14.10
2022-10-25T04:42:10.297Z,14.10
2022-10-25T04:44:37.167Z,14.10
2022-10-25T04:47:03.993Z,14.10
2022-10-25T04:49:30.809Z,14.10
2022-10-25T04:51:58.383Z,14.10
2022-10-25T04:54:25.170Z,14.10
2022-10-25T04:56:54.309Z,14.10
2022-10-25T04:59:23.688Z,14.10
2022-10-25T05:01:53.012Z,14.10
2022-10-25T05:04:19.994Z,14.10
2022-10-25T05:06:48.906Z,14.10
2022-10-25T05:09:15.757Z,14.10
2022-10-25T05:11:42.641Z,14.10
2022-10-25T05:14:09.485Z,14.00
2022-10-25T05:16:39.356Z,14.00
2022-10-25T05:19:06.424Z,14.00
2022-10-25T05:21:33.431Z,14.00
2022-10-25T05:24:02.115Z,14.00
2022-10-25T05:26:31.198Z,14.00
2022-10-25T05:29:01.294Z,14.00
2022-10-25T05:31:30.492Z,14.00
2022-10-25T05:34:01.180Z,14.00
2022-10-25T05:36:32.732Z,14.00
2022-10-25T05:39:03.378Z,14.00
2022-10-25T05:41:33.228Z,14.00
2022-10-25T05:44:03.368Z,14.00
2022-10-25T05:46:32.764Z,14.10
2022-10-25T05:49:00.480Z,14.10
2022-10-25T05:51:35.667Z,14.10
2022-10-25T05:54:18.244Z,14.10
2022-10-25T05:56:47.579Z,14.10
2022-10-25T05:59:15.006Z,14.10
2022-10-25T06:01:47.094Z,14.10
2022-10-25T06:04:16.137Z,14.10
2022-10-25T06:06:47.144Z,14.10
2022-10-25T06:09:17.325Z,14.20
2022-10-25T06:11:44.322Z,14.20
2022-10-25T06:14:11.531Z,14.20
2022-10-25T06:16:39.211Z,14.10
2022-10-25T06:19:07.079Z,14.10
2022-10-25T06:21:38.888Z,14.10
2022-10-25T06:24:08.876Z,14.20
2022-10-25T06:26:35.756Z,14.20
2022-10-25T06:29:05.655Z,14.20
2022-10-25T06:31:35.583Z,14.20
2022-10-25T06:34:03.620Z,14.20
2022-10-25T06:36:35.790Z,14.20
2022-10-25T06:39:05.707Z,14.10
2022-10-25T06:41:41.047Z,14.10
2022-10-25T06:44:11.206Z,14.20
2022-10-25T06:47:11.541Z,14.20
2022-10-25T06:49:27.970Z,14.20
2022-10-25T06:51:55.089Z,14.20
2022-10-25T06:54:26.676Z,14.30
2022-10-25T06:56:55.978Z,14.20
2022-10-25T06:59:23.582Z,14.30
2022-10-25T07:01:50.680Z,14.40
2022-10-25T07:04:17.745Z,14.40
2022-10-25T07:06:50.099Z,14.40
2022-10-25T07:09:19.764Z,14.40
2022-10-25T07:11:46.614Z,14.40
2022-10-25T07:14:13.490Z,14.50
2022-10-25T07:16:40.372Z,14.50
2022-10-25T07:19:10.564Z,14.50
2022-10-25T07:21:37.490Z,14.50
2022-10-25T07:24:04.566Z,14.50
2022-10-25T07:26:34.589Z,14.60
2022-10-25T07:29:04.718Z,14.60
2022-10-25T07:31:35.352Z,14.60
2022-10-25T07:34:08.662Z,14.70
2022-10-25T07:36:35.678Z,14.70
2022-10-25T07:39:05.072Z,14.80
2022-10-25T07:41:31.992Z,14.80
2022-10-25T07:44:01.540Z,14.80
2022-10-25T07:46:28.402Z,14.90
2022-10-25T07:49:00.027Z,14.90
2022-10-25T07:51:29.360Z,14.90
2022-10-25T07:53:58.499Z,14.90
2022-10-25T07:56:25.472Z,14.90
2022-10-25T07:58:52.907Z,14.80
2022-10-25T08:01:25.846Z,14.80
2022-10-25T08:03:56.738Z,14.80
2022-10-25T08:06:25.310Z,14.80
2022-10-25T08:08:52.254Z,14.90
2022-10-25T08:11:19.424Z,14.90
2022-10-25T08:13:50.707Z,14.90
2022-10-25T08:16:20.682Z,14.90
2022-10-25T08:18:47.622Z,14.90
2022-10-25T08:21:15.195Z,14.80
2022-10-25T08:23:42.201Z,14.80
2022-10-25T08:26:11.497Z,14.80
2022-10-25T08:28:38.431Z,14.90
2022-10-25T08:31:08.478Z,15.00
2022-10-25T08:33:35.966Z,15.10
2022-10-25T08:36:03.544Z,15.20
2022-10-25T08:38:33.151Z,15.30
2022-10-25T08:41:22.488Z,15.30
2022-10-25T08:43:55.132Z,15.40
2022-10-25T08:46:31.463Z,15.50
2022-10-25T08:49:07.240Z,15.60
2022-10-25T08:51:41.667Z,15.70
2022-10-25T08:54:28.216Z,15.70
2022-10-25T08:57:20.054Z,15.80
2022-10-25T09:00:07.084Z,15.90
2022-10-25T09:02:42.002Z,15.90
2022-10-25T09:05:55.431Z,16.00
2022-10-25T09:09:04.307Z,16.00
2022-10-25T09:11:57.520Z,16.10
2022-10-25T09:14:39.215Z,16.20
2022-10-25T09:17:43.120Z,16.20
2022-10-25T09:20:35.251Z,16.30
2022-10-25T09:23:31.164Z,16.40
2022-10-25T09:26:19.148Z,16.60
2022-10-25T09:29:20.343Z,16.70
2022-10-25T09:31:54.143Z,16.80
2022-10-25T09:34:23.705Z,16.80
2022-10-25T09:37:07.595Z,17.00
2022-10-25T09:39:45.176Z,17.00
2022-10-25T09:42:26.832Z,17.00
2022-10-25T09:45:00.032Z,17.00
2022-10-25T09:47:48.315Z,17.00
2022-10-25T09:50:30.742Z,17.10
2022-10-25T09:53:23.928Z,17.20
2022-10-25T09:55:58.442Z,17.20
2022-10-25T09:58:31.195Z,17.30
2022-10-25T10:01:05.771Z,17.30
2022-10-25T10:03:35.995Z,17.40
2022-10-25T10:06:17.807Z,17.40
2022-10-25T10:08:51.325Z,17.40
2022-10-25T10:11:37.441Z,17.40
2022-10-25T10:14:26.340Z,17.40
2022-10-25T10:16:57.151Z,17.50
2022-10-25T10:19:35.483Z,17.50
2022-10-25T10:22:16.996Z,17.40
2022-10-25T10:25:01.401Z,17.40
2022-10-25T10:27:34.362Z,17.40
2022-10-25T10:30:18.650Z,17.30
2022-10-25T10:32:57.333Z,17.30
2022-10-25T10:35:36.784Z,17.40
2022-10-25T10:38:43.151Z,17.40
2022-10-25T10:41:28.885Z,17.30
2022-10-25T10:44:28.621Z,17.30
2022-10-25T10:46:58.263Z,17.30
2022-10-25T10:49:43.439Z,17.20
2022-10-25T10:53:16.192Z,17.20
2022-10-25T10:55:46.131Z,17.30
2022-10-25T10:58:38.177Z,17.30
2022-10-25T11:01:17.017Z,17.30
2022-10-25T11:03:53.835Z,17.40
2022-10-25T11:06:48.792Z,17.40
2022-10-25T11:09:32.739Z,17.40
2022-10-25T11:12:14.913Z,17.40
2022-10-25T11:14:42.501Z,17.50
2022-10-25T11:17:29.803Z,17.60
2022-10-25T11:20:47.337Z,17.60
2022-10-25T11:23:33.842Z,17.60
2022-10-25T11:26:26.732Z,17.70
2022-10-25T11:29:15.525Z,17.70
2022-10-25T11:32:51.652Z,17.80
2022-10-25T11:35:30.087Z,17.80
2022-10-25T11:38:13.246Z,17.90
2022-10-25T11:40:52.460Z,17.90
2022-10-25T11:43:55.422Z,18.00
2022-10-25T11:46:50.346Z,18.00
2022-10-25T11:49:56.015Z,18.10
2022-10-25T11:52:41.850Z,18.10
2022-10-25T11:55:26.127Z,18.10
2022-10-25T11:58:37.377Z,18.20
2022-10-25T12:01:06.946Z,18.20
2022-10-25T12:04:29.466Z,18.20
2022-10-25T12:07:20.058Z,18.20
2022-10-25T12:10:26.707Z,18.30
2022-10-25T12:13:14.942Z,18.30
2022-10-25T12:15:48.976Z,18.30
2022-10-25T12:18:26.121Z,18.40
2022-10-25T12:20:54.675Z,18.50
2022-10-25T12:23:27.737Z,18.60
2022-10-25T12:26:10.409Z,18.60
2022-10-25T12:28:51.278Z,18.70
2022-10-25T12:31:29.689Z,18.80
2022-10-25T12:34:13.229Z,18.90
2022-10-25T12:36:56.923Z,19.00
2022-10-25T12:39:36.641Z,19.00
2022-10-25T12:42:09.792Z,19.10
2022-10-25T12:45:02.247Z,19.20
2022-10-25T12:47:55.662Z,19.20
2022-10-25T12:50:34.374Z,19.30
2022-10-25T12:53:45.864Z,19.30
2022-10-25T12:57:08.834Z,19.30
2022-10-25T13:00:12.210Z,19.40
2022-10-25T13:03:10.395Z,19.50
2022-10-25T13:06:09.447Z,19.60
2022-10-25T13:08:41.439Z,19.70
2022-10-25T13:11:10.323Z,19.80
2022-10-25T13:13:46.151Z,19.80
2022-10-25T13:16:28.212Z,19.80
2022-10-25T13:19:49.349Z,19.80
2022-10-25T13:22:35.782Z,19.90
2022-10-25T13:25:16.617Z,19.90
2022-10-25T13:28:11.191Z,19.90
2022-10-25T13:30:38.169Z,19.90
2022-10-25T13:33:24.282Z,19.90
2022-10-25T13:35:51.306Z,19.90
2022-10-25T13:38:34.214Z,20.00
2022-10-25T13:41:20.865Z,20.00
2022-10-25T13:44:05.123Z,20.10
2022-10-25T13:46:38.286Z,20.20
2022-10-25T13:49:36.258Z,20.20
2022-10-25T13:52:23.420Z,20.20
2022-10-25T13:54:55.046Z,20.20
2022-10-25T13:57:58.089Z,20.20
2022-10-25T14:00:32.072Z,20.20
2022-10-25T14:03:13.076Z,20.20
2022-10-25T14:05:55.129Z,20.20
2022-10-25T14:08:46.119Z,20.10
2022-10-25T14:11:28.849Z,20.10
2022-10-25T14:14:13.180Z,20.10
2022-10-25T14:17:23.316Z,20.10
2022-10-25T14:20:04.197Z,20.10
2022-10-25T14:22:40.706Z,20.20
2022-10-25T14:25:32.063Z,20.10
2022-10-25T14:28:06.189Z,20.10
2022-10-25T14:30:43.330Z,20.10
2022-10-25T14:33:35.530Z,20.10
2022-10-25T14:36:35.189Z,20.00
2022-10-25T14:39:17.625Z,20.00
2022-10-25T14:41:53.336Z,20.00
2022-10-25T14:44:28.541Z,19.90
2022-10-25T14:47:00.009Z,19.90
2022-10-25T14:49:30.590Z,19.90
2022-10-25T14:52:03.392Z,19.90
2022-10-25T14:54:35.006Z,19.80
2022-10-25T14:57:06.357Z,19.70
2022-10-25T14:59:46.990Z,19.70
2022-10-25T15:02:27.357Z,19.60
2022-10-25T15:04:58.497Z,19.50
2022-10-25T15:07:46.962Z,19.40
2022-10-25T15:10:34.812Z,19.30
2022-10-25T15:13:30.400Z,19.20
2022-10-25T15:16:02.000Z,19.20
2022-10-25T15:18:41.102Z,19.10
2022-10-25T15:21:17.716Z,19.10
2022-10-25T15:24:16.369Z,19.00
2022-10-25T15:27:00.155Z,19.00
2022-10-25T15:29:46.018Z,19.00
2022-10-25T15:32:27.573Z,19.00
2022-10-25T15:34:56.549Z,18.90
2022-10-25T15:37:25.329Z,18.90
2022-10-25T15:40:17.518Z,18.90
2022-10-25T15:42:44.533Z,18.90
2022-10-25T15:45:15.050Z,18.80
2022-10-25T15:47:47.348Z,18.70
2022-10-25T15:50:26.270Z,18.60
2022-10-25T15:52:53.934Z,18.50
2022-10-25T15:55:27.336Z,18.30
2022-10-25T15:57:57.446Z,18.30
2022-10-25T16:00:36.427Z,18.30
2022-10-25T16:03:52.315Z,18.10
2022-10-25T16:06:37.817Z,18.00
2022-10-25T16:09:26.461Z,17.90
2022-10-25T16:11:58.959Z,17.80
2022-10-25T16:15:04.401Z,17.70
2022-10-25T16:17:58.394Z,17.70
2022-10-25T16:20:34.912Z,17.50
2022-10-25T16:23:26.759Z,17.50
2022-10-25T16:27:17.986Z,17.40
2022-10-25T16:29:50.863Z,17.30
2022-10-25T16:32:40.926Z,17.20
2022-10-25T16:35:18.922Z,17.20
2022-10-25T16:38:05.988Z,17.10
2022-10-25T16:40:43.348Z,17.00
2022-10-25T16:43:22.681Z,17.00
2022-10-25T16:46:16.922Z,16.90
2022-10-25T16:48:46.802Z,16.90
2022-10-25T16:51:17.169Z,16.80
2022-10-25T16:53:52.218Z,16.70
2022-10-25T16:56:19.314Z,16.70
2022-10-25T16:58:46.945Z,16.60
2022-10-25T17:02:01.079Z,16.60
2022-10-25T17:04:39.851Z,16.60
2022-10-25T17:07:49.834Z,16.50
2022-10-25T17:14:57.061Z,16.30
2022-10-25T17:17:52.209Z,16.30
2022-10-25T17:20:27.665Z,16.20
2022-10-25T17:22:54.664Z,16.20
2022-10-25T17:25:53.224Z,16.10
2022-10-25T17:32:04.328Z,15.90
2022-10-25T17:35:05.750Z,15.90
2022-10-25T17:41:48.007Z,15.90
2022-10-25T17:48:12.244Z,15.60
2022-10-25T17:51:06.915Z,15.70
2022-10-25T17:57:51.340Z,15.60
2022-10-25T18:00:39.681Z,15.60
2022-10-25T18:03:41.975Z,15.50
2022-10-25T18:07:23.283Z,15.60
2022-10-25T18:09:55.256Z,15.50
2022-10-25T18:16:38.020Z,15.40
2022-10-25T18:19:29.767Z,15.40
2022-10-25T18:22:21.241Z,15.30
2022-10-25T18:24:48.311Z,15.30
2022-10-25T18:27:16.413Z,15.20
2022-10-25T18:29:44.625Z,15.20
2022-10-25T18:32:17.379Z,15.20
2022-10-25T18:34:53.739Z,15.20
2022-10-25T18:37:27.912Z,15.20
2022-10-25T18:40:02.677Z,15.10
2022-10-25T18:42:41.354Z,15.10
2022-10-25T18:45:19.716Z,15.20
2022-10-25T18:47:56.459Z,15.20
2022-10-25T18:50:28.821Z,15.20
2022-10-25T18:53:00.084Z,15.20
2022-10-25T18:55:45.777Z,15.20
2022-10-25T19:01:28.113Z,15.10
2022-10-25T19:04:06.630Z,15.10
2022-10-25T19:07:02.054Z,15.00
2022-10-25T19:09:53.646Z,15.00
2022-10-25T19:12:25.545Z,15.00
2022-10-25T19:15:04.813Z,15.00
2022-10-25T19:17:46.475Z,15.00
2022-10-25T19:20:17.704Z,15.10
2022-10-25T19:23:03.670Z,15.10
2022-10-25T19:25:34.701Z,15.00
2022-10-25T19:28:03.200Z,15.00
2022-10-25T19:30:34.262Z,15.10
2022-10-25T19:33:13.851Z,15.10
2022-10-25T19:35:50.045Z,15.10
2022-10-25T19:38:30.994Z,15.00
2022-10-25T19:43:57.494Z,15.00
2022-10-25T19:46:26.736Z,15.10
2022-10-25T19:48:56.418Z,15.00
2022-10-25T19:51:26.291Z,15.00
2022-10-25T19:56:39.362Z,15.00
2022-10-25T19:59:14.849Z,14.90
2022-10-25T20:07:19.435Z,14.90
2022-10-25T20:09:57.835Z,14.90
2022-10-25T20:15:26.239Z,14.90
2022-10-25T20:17:57.153Z,14.90
2022-10-25T20:20:29.918Z,14.90
2022-10-25T20:22:58.973Z,14.90
2022-10-25T20:25:33.436Z,14.80
2022-10-25T20:28:04.758Z,14.90
2022-10-25T20:30:48.282Z,14.90
2022-10-25T20:33:27.815Z,15.00
2022-10-25T20:36:09.039Z,15.00
2022-10-25T20:38:36.947Z,15.00
2022-10-25T20:41:18.675Z,15.00
2022-10-25T20:43:50.876Z,14.90
2022-10-25T20:46:19.876Z,15.00
2022-10-25T20:48:54.433Z,15.00
2022-10-25T20:51:25.591Z,15.00
2022-10-25T20:53:57.140Z,15.00
2022-10-25T20:56:29.455Z,14.90
2022-10-25T20:58:58.029Z,15.00
2022-10-25T21:01:26.027Z,15.00
2022-10-25T21:03:54.044Z,15.00
2022-10-25T21:06:22.638Z,14.90
2022-10-25T21:08:53.188Z,14.90
2022-10-25T21:11:20.155Z,14.90
2022-10-25T21:13:47.168Z,14.90
2022-10-25T21:16:20.312Z,14.90
2022-10-25T21:18:49.395Z,14.90
2022-10-25T21:21:19.025Z,14.90
2022-10-25T21:23:49.595Z,14.90
2022-10-25T21:26:16.868Z,14.90
2022-10-25T21:28:46.571Z,14.90
2022-10-25T21:31:16.333Z,14.80
2022-10-25T21:33:52.512Z,14.90
2022-10-25T21:36:25.399Z,14.90
2022-10-25T21:38:52.667Z,14.90
2022-10-25T21:41:27.104Z,14.90
2022-10-25T21:43:55.578Z,14.90
2022-10-25T21:46:26.806Z,14.90
2022-10-25T21:48:55.255Z,14.90
2022-10-25T21:51:27.503Z,14.90
2022-10-25T21:54:01.182Z,14.90
2022-10-25T21:56:31.404Z,15.00
2022-10-25T21:59:02.381Z,15.00
2022-10-25T22:01:34.224Z,14.90
2022-10-25T22:04:05.423Z,15.00
2022-10-25T22:06:32.390Z,14.90
2022-10-25T22:08:59.797Z,15.00
2022-10-25T22:11:38.875Z,14.90
2022-10-25T22:14:12.394Z,14.90
2022-10-25T22:16:42.348Z,14.90
2022-10-25T22:22:05.761Z,15.00
2022-10-25T22:24:32.988Z,14.90
2022-10-25T22:27:01.026Z,14.90
2022-10-25T22:29:27.970Z,14.90
2022-10-25T22:31:55.016Z,15.00
2022-10-25T22:34:23.840Z,15.00
2022-10-25T22:36:54.085Z,15.00
2022-10-25T22:39:22.093Z,15.00
2022-10-25T22:41:54.151Z,15.00
2022-10-25T22:46:55.434Z,15.00
2022-10-25T22:49:27.266Z,15.00
2022-10-25T22:51:57.046Z,15.00
2022-10-25T22:54:24.066Z,15.00
2022-10-25T22:56:54.578Z,15.00
2022-10-25T22:59:25.075Z,15.00
2022-10-25T23:01:55.698Z,15.00
2022-10-25T23:04:27.166Z,15.00
2022-10-25T23:06:54.089Z,14.90
2022-10-25T23:09:23.981Z,14.90
2022-10-25T23:11:50.929Z,14.90
2022-10-25T23:14:17.830Z,14.90
2022-10-25T23:16:46.065Z,14.90
2022-10-25T23:19:12.966Z,14.90
2022-10-25T23:21:39.848Z,14.90
2022-10-25T23:24:10.190Z,14.90
2022-10-25T23:26:37.179Z,14.90
2022-10-25T23:29:06.478Z,14.90
2022-10-25T23:31:33.470Z,15.00
2022-10-25T23:34:01.255Z,15.00
2022-10-25T23:36:37.473Z,14.90
2022-10-25T23:39:08.161Z,14.90
2022-10-25T23:41:35.200Z,14.90
2022-10-25T23:44:02.248Z,15.00
2022-10-25T23:46:31.630Z,15.00
2022-10-25T23:48:58.759Z,15.00
2022-10-25T23:51:28.190Z,15.00
2022-10-25T23:53:55.060Z,15.00
2022-10-25T23:56:26.952Z,15.00
2022-10-25T23:58:56.312Z,15.00
